sensor_id;sensor_type;location;lat;lon;timestamp;P1;durP1;ratioP1;P2;durP2;ratioP2
53833;SDS011;39735;51.432;5.482;2023-05-16T00:01:13;35.80;;;6.82;;
53833;SDS011;39735;51.432;5.482;2023-05-16T00:04:37;38.55;;;6.18;;
53833;SDS011;39735;51.432;5.482;2023-05-16T00:08:01;52.78;;;7.57;;
53833;SDS011;39735;51.432;5.482;2023-05-16T00:11:25;22.17;;;4.38;;
53833;SDS011;39735;51.432;5.482;2023-05-16T00:14:50;30.85;;;4.80;;
53833;SDS011;39735;51.432;5.482;2023-05-16T00:18:14;33.85;;;4.80;;
53833;SDS011;39735;51.432;5.482;2023-05-16T00:21:38;31.70;;;5.65;;
53833;SDS011;39735;51.432;5.482;2023-05-16T00:25:02;22.38;;;4.75;;
53833;SDS011;39735;51.432;5.482;2023-05-16T00:28:25;20.55;;;4.32;;
53833;SDS011;39735;51.432;5.482;2023-05-16T00:31:50;27.95;;;4.45;;
53833;SDS011;39735;51.432;5.482;2023-05-16T00:35:14;39.30;;;6.78;;
53833;SDS011;39735;51.432;5.482;2023-05-16T00:38:38;29.92;;;4.65;;
53833;SDS011;39735;51.432;5.482;2023-05-16T00:42:02;35.17;;;3.58;;
53833;SDS011;39735;51.432;5.482;2023-05-16T00:45:26;46.55;;;7.90;;
53833;SDS011;39735;51.432;5.482;2023-05-16T00:48:50;28.85;;;4.05;;
53833;SDS011;39735;51.432;5.482;2023-05-16T00:52:14;24.77;;;3.75;;
53833;SDS011;39735;51.432;5.482;2023-05-16T00:55:38;32.65;;;4.45;;
53833;SDS011;39735;51.432;5.482;2023-05-16T00:59:02;37.30;;;4.80;;
53833;SDS011;39735;51.432;5.482;2023-05-16T01:02:26;12.18;;;2.83;;
53833;SDS011;39735;51.432;5.482;2023-05-16T01:05:51;40.22;;;5.50;;
53833;SDS011;39735;51.432;5.482;2023-05-16T01:09:15;25.83;;;5.50;;
53833;SDS011;39735;51.432;5.482;2023-05-16T01:24:08;28.95;;;7.60;;
53833;SDS011;39735;51.432;5.482;2023-05-16T01:27:49;33.20;;;4.97;;
53833;SDS011;39735;51.432;5.482;2023-05-16T01:31:15;26.90;;;3.78;;
53833;SDS011;39735;51.432;5.482;2023-05-16T01:38:15;24.63;;;3.38;;
53833;SDS011;39735;51.432;5.482;2023-05-16T01:45:28;24.27;;;3.13;;
53833;SDS011;39735;51.432;5.482;2023-05-16T01:49:06;64.47;;;9.25;;
53833;SDS011;39735;51.432;5.482;2023-05-16T01:55:59;20.73;;;5.25;;
53833;SDS011;39735;51.432;5.482;2023-05-16T02:02:47;24.40;;;3.08;;
53833;SDS011;39735;51.432;5.482;2023-05-16T02:06:11;31.00;;;5.43;;
53833;SDS011;39735;51.432;5.482;2023-05-16T02:09:35;27.27;;;3.50;;
53833;SDS011;39735;51.432;5.482;2023-05-16T02:12:59;30.45;;;3.05;;
53833;SDS011;39735;51.432;5.482;2023-05-16T02:16:23;15.57;;;2.88;;
53833;SDS011;39735;51.432;5.482;2023-05-16T02:19:47;30.38;;;4.95;;
53833;SDS011;39735;51.432;5.482;2023-05-16T02:23:11;31.50;;;3.97;;
53833;SDS011;39735;51.432;5.482;2023-05-16T02:26:35;24.35;;;2.70;;
53833;SDS011;39735;51.432;5.482;2023-05-16T02:30:00;15.57;;;2.55;;
53833;SDS011;39735;51.432;5.482;2023-05-16T02:33:27;24.85;;;3.08;;
53833;SDS011;39735;51.432;5.482;2023-05-16T02:36:51;13.13;;;2.55;;
53833;SDS011;39735;51.432;5.482;2023-05-16T02:40:15;20.70;;;2.95;;
53833;SDS011;39735;51.432;5.482;2023-05-16T02:43:39;14.38;;;2.92;;
53833;SDS011;39735;51.432;5.482;2023-05-16T02:47:03;18.98;;;3.88;;
53833;SDS011;39735;51.432;5.482;2023-05-16T02:50:27;29.88;;;2.95;;
53833;SDS011;39735;51.432;5.482;2023-05-16T02:53:51;25.67;;;3.50;;
53833;SDS011;39735;51.432;5.482;2023-05-16T02:57:15;22.80;;;3.25;;
53833;SDS011;39735;51.432;5.482;2023-05-16T03:00:39;13.20;;;2.55;;
53833;SDS011;39735;51.432;5.482;2023-05-16T03:04:03;28.35;;;3.63;;
53833;SDS011;39735;51.432;5.482;2023-05-16T03:07:28;8.70;;;1.55;;
53833;SDS011;39735;51.432;5.482;2023-05-16T03:10:52;24.13;;;2.97;;
53833;SDS011;39735;51.432;5.482;2023-05-16T03:14:16;40.75;;;9.05;;
53833;SDS011;39735;51.432;5.482;2023-05-16T03:17:41;45.80;;;4.07;;
53833;SDS011;39735;51.432;5.482;2023-05-16T03:21:05;26.98;;;3.92;;
53833;SDS011;39735;51.432;5.482;2023-05-16T03:24:29;42.55;;;5.43;;
53833;SDS011;39735;51.432;5.482;2023-05-16T03:27:53;24.80;;;2.83;;
53833;SDS011;39735;51.432;5.482;2023-05-16T03:31:17;22.23;;;4.68;;
53833;SDS011;39735;51.432;5.482;2023-05-16T03:34:41;22.38;;;3.75;;
53833;SDS011;39735;51.432;5.482;2023-05-16T03:38:05;23.70;;;3.33;;
53833;SDS011;39735;51.432;5.482;2023-05-16T03:41:29;33.53;;;4.97;;
53833;SDS011;39735;51.432;5.482;2023-05-16T03:44:53;28.55;;;5.25;;
53833;SDS011;39735;51.432;5.482;2023-05-16T03:48:17;18.48;;;3.13;;
53833;SDS011;39735;51.432;5.482;2023-05-16T03:51:41;11.70;;;2.75;;
53833;SDS011;39735;51.432;5.482;2023-05-16T03:55:05;29.63;;;2.97;;
53833;SDS011;39735;51.432;5.482;2023-05-16T03:58:29;22.48;;;4.68;;
53833;SDS011;39735;51.432;5.482;2023-05-16T04:01:53;17.30;;;2.38;;
53833;SDS011;39735;51.432;5.482;2023-05-16T04:05:17;22.27;;;3.30;;
53833;SDS011;39735;51.432;5.482;2023-05-16T04:08:41;31.30;;;3.97;;
53833;SDS011;39735;51.432;5.482;2023-05-16T04:12:05;35.35;;;5.53;;
53833;SDS011;39735;51.432;5.482;2023-05-16T04:15:29;16.30;;;3.40;;
53833;SDS011;39735;51.432;5.482;2023-05-16T04:18:53;14.93;;;2.80;;
53833;SDS011;39735;51.432;5.482;2023-05-16T04:22:19;23.80;;;2.65;;
53833;SDS011;39735;51.432;5.482;2023-05-16T04:25:43;15.32;;;4.50;;
53833;SDS011;39735;51.432;5.482;2023-05-16T04:29:07;27.00;;;7.80;;
53833;SDS011;39735;51.432;5.482;2023-05-16T04:32:31;21.50;;;4.78;;
53833;SDS011;39735;51.432;5.482;2023-05-16T04:35:55;27.27;;;4.20;;
53833;SDS011;39735;51.432;5.482;2023-05-16T04:39:19;34.95;;;4.70;;
53833;SDS011;39735;51.432;5.482;2023-05-16T04:42:43;28.83;;;3.20;;
53833;SDS011;39735;51.432;5.482;2023-05-16T04:46:07;33.83;;;3.97;;
53833;SDS011;39735;51.432;5.482;2023-05-16T04:49:31;45.22;;;4.97;;
53833;SDS011;39735;51.432;5.482;2023-05-16T04:52:55;22.75;;;3.92;;
53833;SDS011;39735;51.432;5.482;2023-05-16T04:56:19;23.52;;;3.60;;
53833;SDS011;39735;51.432;5.482;2023-05-16T04:59:43;28.88;;;3.08;;
53833;SDS011;39735;51.432;5.482;2023-05-16T05:03:07;31.95;;;2.92;;
53833;SDS011;39735;51.432;5.482;2023-05-16T05:06:32;22.95;;;2.97;;
53833;SDS011;39735;51.432;5.482;2023-05-16T05:09:56;24.63;;;3.15;;
53833;SDS011;39735;51.432;5.482;2023-05-16T05:13:20;27.35;;;5.75;;
53833;SDS011;39735;51.432;5.482;2023-05-16T05:16:44;27.52;;;3.40;;
53833;SDS011;39735;51.432;5.482;2023-05-16T05:20:08;30.10;;;4.90;;
53833;SDS011;39735;51.432;5.482;2023-05-16T05:23:32;29.05;;;3.85;;
53833;SDS011;39735;51.432;5.482;2023-05-16T05:26:56;34.30;;;4.03;;
53833;SDS011;39735;51.432;5.482;2023-05-16T05:30:20;24.42;;;1.95;;
53833;SDS011;39735;51.432;5.482;2023-05-16T05:33:44;26.67;;;2.88;;
53833;SDS011;39735;51.432;5.482;2023-05-16T05:37:08;19.77;;;3.50;;
53833;SDS011;39735;51.432;5.482;2023-05-16T05:40:32;24.98;;;3.53;;
53833;SDS011;39735;51.432;5.482;2023-05-16T05:43:56;34.83;;;3.85;;
53833;SDS011;39735;51.432;5.482;2023-05-16T05:47:20;27.58;;;5.68;;
53833;SDS011;39735;51.432;5.482;2023-05-16T05:50:46;24.63;;;3.67;;
53833;SDS011;39735;51.432;5.482;2023-05-16T05:54:10;24.23;;;3.25;;
53833;SDS011;39735;51.432;5.482;2023-05-16T05:57:34;13.70;;;1.85;;
53833;SDS011;39735;51.432;5.482;2023-05-16T06:00:58;20.42;;;3.40;;
53833;SDS011;39735;51.432;5.482;2023-05-16T06:04:22;22.60;;;5.68;;
53833;SDS011;39735;51.432;5.482;2023-05-16T06:07:47;17.90;;;2.75;;
53833;SDS011;39735;51.432;5.482;2023-05-16T06:11:11;23.08;;;4.10;;
53833;SDS011;39735;51.432;5.482;2023-05-16T06:14:35;12.82;;;3.05;;
53833;SDS011;39735;51.432;5.482;2023-05-16T06:17:59;26.88;;;2.90;;
53833;SDS011;39735;51.432;5.482;2023-05-16T06:21:23;27.73;;;2.50;;
53833;SDS011;39735;51.432;5.482;2023-05-16T06:24:47;15.57;;;4.40;;
53833;SDS011;39735;51.432;5.482;2023-05-16T06:28:11;21.75;;;2.63;;
53833;SDS011;39735;51.432;5.482;2023-05-16T06:31:35;24.30;;;4.18;;
53833;SDS011;39735;51.432;5.482;2023-05-16T06:34:59;29.80;;;2.55;;
53833;SDS011;39735;51.432;5.482;2023-05-16T06:38:23;17.17;;;2.08;;
53833;SDS011;39735;51.432;5.482;2023-05-16T06:41:47;17.95;;;3.30;;
53833;SDS011;39735;51.432;5.482;2023-05-16T06:45:10;24.63;;;3.33;;
53833;SDS011;39735;51.432;5.482;2023-05-16T06:48:34;25.60;;;3.05;;
53833;SDS011;39735;51.432;5.482;2023-05-16T06:51:58;15.18;;;2.40;;
53833;SDS011;39735;51.432;5.482;2023-05-16T06:55:22;19.25;;;3.30;;
53833;SDS011;39735;51.432;5.482;2023-05-16T06:58:46;12.32;;;2.70;;
53833;SDS011;39735;51.432;5.482;2023-05-16T07:02:10;14.02;;;1.50;;
53833;SDS011;39735;51.432;5.482;2023-05-16T07:05:34;16.90;;;2.88;;
53833;SDS011;39735;51.432;5.482;2023-05-16T07:08:58;30.50;;;2.40;;
53833;SDS011;39735;51.432;5.482;2023-05-16T07:12:22;16.35;;;2.17;;
53833;SDS011;39735;51.432;5.482;2023-05-16T07:15:47;25.25;;;5.22;;
53833;SDS011;39735;51.432;5.482;2023-05-16T07:19:10;18.23;;;1.45;;
53833;SDS011;39735;51.432;5.482;2023-05-16T07:22:37;24.42;;;2.63;;
53833;SDS011;39735;51.432;5.482;2023-05-16T07:26:01;26.67;;;7.43;;
53833;SDS011;39735;51.432;5.482;2023-05-16T07:29:25;16.25;;;2.17;;
53833;SDS011;39735;51.432;5.482;2023-05-16T07:32:49;13.80;;;2.42;;
53833;SDS011;39735;51.432;5.482;2023-05-16T07:36:13;7.22;;;1.20;;
53833;SDS011;39735;51.432;5.482;2023-05-16T07:39:38;14.77;;;2.73;;
53833;SDS011;39735;51.432;5.482;2023-05-16T07:43:02;19.10;;;1.65;;
53833;SDS011;39735;51.432;5.482;2023-05-16T07:46:26;6.88;;;2.20;;
53833;SDS011;39735;51.432;5.482;2023-05-16T07:49:50;13.15;;;1.67;;
53833;SDS011;39735;51.432;5.482;2023-05-16T07:53:14;5.20;;;2.13;;
53833;SDS011;39735;51.432;5.482;2023-05-16T07:56:38;13.73;;;1.50;;
53833;SDS011;39735;51.432;5.482;2023-05-16T08:00:02;21.67;;;3.67;;
53833;SDS011;39735;51.432;5.482;2023-05-16T08:03:26;17.23;;;3.58;;
53833;SDS011;39735;51.432;5.482;2023-05-16T08:06:50;10.00;;;1.48;;
53833;SDS011;39735;51.432;5.482;2023-05-16T08:10:14;17.20;;;1.80;;
53833;SDS011;39735;51.432;5.482;2023-05-16T08:13:39;13.33;;;3.33;;
53833;SDS011;39735;51.432;5.482;2023-05-16T08:17:03;19.63;;;2.25;;
53833;SDS011;39735;51.432;5.482;2023-05-16T08:20:27;5.03;;;1.52;;
53833;SDS011;39735;51.432;5.482;2023-05-16T08:23:51;9.57;;;1.25;;
53833;SDS011;39735;51.432;5.482;2023-05-16T08:27:15;9.55;;;2.47;;
53833;SDS011;39735;51.432;5.482;2023-05-16T08:30:39;7.65;;;1.10;;
53833;SDS011;39735;51.432;5.482;2023-05-16T08:34:03;12.73;;;1.40;;
53833;SDS011;39735;51.432;5.482;2023-05-16T08:37:27;18.33;;;2.13;;
53833;SDS011;39735;51.432;5.482;2023-05-16T08:40:51;19.63;;;2.92;;
53833;SDS011;39735;51.432;5.482;2023-05-16T08:44:15;3.40;;;1.52;;
53833;SDS011;39735;51.432;5.482;2023-05-16T08:47:39;1.83;;;0.88;;
53833;SDS011;39735;51.432;5.482;2023-05-16T08:51:03;7.05;;;1.40;;
53833;SDS011;39735;51.432;5.482;2023-05-16T08:54:28;16.15;;;1.90;;
53833;SDS011;39735;51.432;5.482;2023-05-16T08:57:52;18.27;;;2.13;;
53833;SDS011;39735;51.432;5.482;2023-05-16T09:01:19;43.78;;;7.22;;
53833;SDS011;39735;51.432;5.482;2023-05-16T09:04:43;22.05;;;2.20;;
53833;SDS011;39735;51.432;5.482;2023-05-16T09:08:08;7.47;;;1.20;;
53833;SDS011;39735;51.432;5.482;2023-05-16T09:11:34;16.05;;;1.33;;
53833;SDS011;39735;51.432;5.482;2023-05-16T09:15:00;6.93;;;1.10;;
53833;SDS011;39735;51.432;5.482;2023-05-16T09:18:38;11.00;;;1.52;;
53833;SDS011;39735;51.432;5.482;2023-05-16T09:22:04;19.80;;;1.60;;
53833;SDS011;39735;51.432;5.482;2023-05-16T09:25:29;14.98;;;1.80;;
53833;SDS011;39735;51.432;5.482;2023-05-16T09:28:53;10.73;;;2.28;;
53833;SDS011;39735;51.432;5.482;2023-05-16T09:32:17;12.00;;;2.17;;
53833;SDS011;39735;51.432;5.482;2023-05-16T09:35:41;18.35;;;1.98;;
53833;SDS011;39735;51.432;5.482;2023-05-16T09:39:06;14.32;;;1.48;;
53833;SDS011;39735;51.432;5.482;2023-05-16T09:42:31;4.13;;;1.60;;
53833;SDS011;39735;51.432;5.482;2023-05-16T09:45:55;7.20;;;1.40;;
53833;SDS011;39735;51.432;5.482;2023-05-16T09:49:22;8.35;;;1.27;;
53833;SDS011;39735;51.432;5.482;2023-05-16T09:52:45;28.40;;;2.15;;
53833;SDS011;39735;51.432;5.482;2023-05-16T09:56:10;17.90;;;3.78;;
53833;SDS011;39735;51.432;5.482;2023-05-16T09:59:37;12.75;;;1.48;;
53833;SDS011;39735;51.432;5.482;2023-05-16T10:03:02;17.35;;;1.88;;
53833;SDS011;39735;51.432;5.482;2023-05-16T10:06:25;15.55;;;2.83;;
53833;SDS011;39735;51.432;5.482;2023-05-16T10:09:49;19.63;;;3.10;;
53833;SDS011;39735;51.432;5.482;2023-05-16T10:13:19;16.85;;;2.38;;
53833;SDS011;39735;51.432;5.482;2023-05-16T10:16:45;10.57;;;1.25;;
53833;SDS011;39735;51.432;5.482;2023-05-16T10:20:10;21.80;;;2.13;;
53833;SDS011;39735;51.432;5.482;2023-05-16T10:23:35;11.35;;;2.00;;
53833;SDS011;39735;51.432;5.482;2023-05-16T10:27:19;10.77;;;1.52;;
53833;SDS011;39735;51.432;5.482;2023-05-16T10:30:44;17.13;;;1.50;;
53833;SDS011;39735;51.432;5.482;2023-05-16T10:34:09;7.85;;;2.00;;
53833;SDS011;39735;51.432;5.482;2023-05-16T10:37:34;11.45;;;2.65;;
53833;SDS011;39735;51.432;5.482;2023-05-16T10:40:58;4.78;;;0.68;;
53833;SDS011;39735;51.432;5.482;2023-05-16T10:44:24;2.55;;;0.90;;
53833;SDS011;39735;51.432;5.482;2023-05-16T10:54:51;4.20;;;1.23;;
53833;SDS011;39735;51.432;5.482;2023-05-16T10:58:22;7.93;;;2.05;;
53833;SDS011;39735;51.432;5.482;2023-05-16T11:01:51;8.57;;;1.90;;
53833;SDS011;39735;51.432;5.482;2023-05-16T11:05:16;8.68;;;2.05;;
53833;SDS011;39735;51.432;5.482;2023-05-16T11:08:56;11.13;;;1.73;;
53833;SDS011;39735;51.432;5.482;2023-05-16T11:12:47;9.48;;;1.40;;
53833;SDS011;39735;51.432;5.482;2023-05-16T11:16:27;9.50;;;1.30;;
53833;SDS011;39735;51.432;5.482;2023-05-16T11:19:56;7.05;;;1.27;;
53833;SDS011;39735;51.432;5.482;2023-05-16T11:23:27;6.75;;;1.65;;
53833;SDS011;39735;51.432;5.482;2023-05-16T11:26:59;5.35;;;0.82;;
53833;SDS011;39735;51.432;5.482;2023-05-16T11:30:23;21.83;;;1.50;;
53833;SDS011;39735;51.432;5.482;2023-05-16T11:33:47;8.00;;;1.45;;
53833;SDS011;39735;51.432;5.482;2023-05-16T11:37:12;8.05;;;2.60;;
53833;SDS011;39735;51.432;5.482;2023-05-16T11:40:43;13.75;;;2.03;;
53833;SDS011;39735;51.432;5.482;2023-05-16T11:44:10;10.07;;;1.33;;
53833;SDS011;39735;51.432;5.482;2023-05-16T11:47:36;7.60;;;0.90;;
53833;SDS011;39735;51.432;5.482;2023-05-16T11:51:00;4.82;;;1.73;;
53833;SDS011;39735;51.432;5.482;2023-05-16T11:54:24;6.35;;;1.08;;
53833;SDS011;39735;51.432;5.482;2023-05-16T11:57:53;15.37;;;3.30;;
53833;SDS011;39735;51.432;5.482;2023-05-16T12:01:17;14.55;;;2.40;;
53833;SDS011;39735;51.432;5.482;2023-05-16T12:04:41;10.35;;;1.30;;
53833;SDS011;39735;51.432;5.482;2023-05-16T12:08:16;12.63;;;1.58;;
53833;SDS011;39735;51.432;5.482;2023-05-16T12:11:41;14.52;;;3.33;;
53833;SDS011;39735;51.432;5.482;2023-05-16T12:15:06;6.47;;;1.35;;
53833;SDS011;39735;51.432;5.482;2023-05-16T12:18:31;6.25;;;2.00;;
53833;SDS011;39735;51.432;5.482;2023-05-16T12:21:55;7.22;;;2.58;;
53833;SDS011;39735;51.432;5.482;2023-05-16T12:25:21;1.38;;;1.17;;
53833;SDS011;39735;51.432;5.482;2023-05-16T12:32:22;9.48;;;1.42;;
53833;SDS011;39735;51.432;5.482;2023-05-16T12:35:46;14.73;;;2.90;;
53833;SDS011;39735;51.432;5.482;2023-05-16T12:39:10;7.55;;;1.75;;
53833;SDS011;39735;51.432;5.482;2023-05-16T12:42:37;16.92;;;2.60;;
53833;SDS011;39735;51.432;5.482;2023-05-16T12:46:01;27.45;;;3.17;;
53833;SDS011;39735;51.432;5.482;2023-05-16T12:49:25;11.38;;;1.25;;
53833;SDS011;39735;51.432;5.482;2023-05-16T12:52:51;7.85;;;2.10;;
53833;SDS011;39735;51.432;5.482;2023-05-16T12:56:15;3.95;;;1.30;;
53833;SDS011;39735;51.432;5.482;2023-05-16T12:59:39;5.20;;;1.10;;
53833;SDS011;39735;51.432;5.482;2023-05-16T13:03:03;9.60;;;2.00;;
53833;SDS011;39735;51.432;5.482;2023-05-16T13:06:28;7.90;;;1.67;;
53833;SDS011;39735;51.432;5.482;2023-05-16T13:09:51;11.88;;;1.92;;
53833;SDS011;39735;51.432;5.482;2023-05-16T13:13:15;16.48;;;3.78;;
53833;SDS011;39735;51.432;5.482;2023-05-16T13:16:41;25.40;;;2.65;;
53833;SDS011;39735;51.432;5.482;2023-05-16T13:20:05;7.05;;;1.75;;
53833;SDS011;39735;51.432;5.482;2023-05-16T13:23:30;8.75;;;1.73;;
53833;SDS011;39735;51.432;5.482;2023-05-16T13:26:53;14.32;;;1.92;;
53833;SDS011;39735;51.432;5.482;2023-05-16T13:30:17;11.82;;;2.20;;
53833;SDS011;39735;51.432;5.482;2023-05-16T13:33:41;5.65;;;1.23;;
53833;SDS011;39735;51.432;5.482;2023-05-16T13:37:05;9.60;;;1.48;;
53833;SDS011;39735;51.432;5.482;2023-05-16T13:40:29;14.13;;;1.50;;
53833;SDS011;39735;51.432;5.482;2023-05-16T13:43:53;4.78;;;1.40;;
53833;SDS011;39735;51.432;5.482;2023-05-16T13:47:17;13.63;;;1.75;;
53833;SDS011;39735;51.432;5.482;2023-05-16T13:50:41;19.75;;;3.25;;
53833;SDS011;39735;51.432;5.482;2023-05-16T13:54:05;8.35;;;2.28;;
53833;SDS011;39735;51.432;5.482;2023-05-16T13:57:29;7.78;;;1.10;;
53833;SDS011;39735;51.432;5.482;2023-05-16T14:00:53;11.93;;;2.53;;
53833;SDS011;39735;51.432;5.482;2023-05-16T14:04:17;8.35;;;1.48;;
53833;SDS011;39735;51.432;5.482;2023-05-16T14:07:41;15.10;;;2.30;;
53833;SDS011;39735;51.432;5.482;2023-05-16T14:11:05;13.10;;;1.55;;
53833;SDS011;39735;51.432;5.482;2023-05-16T14:17:55;2.65;;;1.75;;
53833;SDS011;39735;51.432;5.482;2023-05-16T14:21:18;4.80;;;2.15;;
53833;SDS011;39735;51.432;5.482;2023-05-16T14:24:43;8.75;;;2.47;;
53833;SDS011;39735;51.432;5.482;2023-05-16T14:28:07;2.97;;;1.23;;
53833;SDS011;39735;51.432;5.482;2023-05-16T14:31:31;8.65;;;2.35;;
53833;SDS011;39735;51.432;5.482;2023-05-16T14:34:55;2.72;;;1.42;;
53833;SDS011;39735;51.432;5.482;2023-05-16T14:38:19;9.77;;;3.33;;
53833;SDS011;39735;51.432;5.482;2023-05-16T14:41:43;9.73;;;2.80;;
53833;SDS011;39735;51.432;5.482;2023-05-16T14:45:07;10.32;;;2.03;;
53833;SDS011;39735;51.432;5.482;2023-05-16T14:48:31;6.10;;;1.80;;
53833;SDS011;39735;51.432;5.482;2023-05-16T14:51:56;9.50;;;1.50;;
53833;SDS011;39735;51.432;5.482;2023-05-16T14:55:20;5.53;;;1.60;;
53833;SDS011;39735;51.432;5.482;2023-05-16T14:58:43;13.60;;;3.80;;
53833;SDS011;39735;51.432;5.482;2023-05-16T15:02:08;5.25;;;1.40;;
53833;SDS011;39735;51.432;5.482;2023-05-16T15:05:32;12.30;;;1.85;;
53833;SDS011;39735;51.432;5.482;2023-05-16T15:08:56;12.13;;;2.20;;
53833;SDS011;39735;51.432;5.482;2023-05-16T15:12:20;10.88;;;1.58;;
53833;SDS011;39735;51.432;5.482;2023-05-16T15:15:44;11.85;;;3.10;;
53833;SDS011;39735;51.432;5.482;2023-05-16T15:19:08;5.55;;;1.95;;
53833;SDS011;39735;51.432;5.482;2023-05-16T15:22:33;12.00;;;3.85;;
53833;SDS011;39735;51.432;5.482;2023-05-16T15:25:57;7.38;;;1.83;;
53833;SDS011;39735;51.432;5.482;2023-05-16T15:29:21;7.90;;;1.67;;
53833;SDS011;39735;51.432;5.482;2023-05-16T15:32:45;8.05;;;2.03;;
53833;SDS011;39735;51.432;5.482;2023-05-16T15:36:09;12.95;;;1.27;;
53833;SDS011;39735;51.432;5.482;2023-05-16T15:39:33;18.30;;;1.30;;
53833;SDS011;39735;51.432;5.482;2023-05-16T15:42:57;12.27;;;2.33;;
53833;SDS011;39735;51.432;5.482;2023-05-16T15:46:21;9.50;;;1.75;;
53833;SDS011;39735;51.432;5.482;2023-05-16T15:49:45;7.63;;;1.92;;
53833;SDS011;39735;51.432;5.482;2023-05-16T15:53:09;20.35;;;1.67;;
53833;SDS011;39735;51.432;5.482;2023-05-16T15:56:33;11.93;;;1.52;;
53833;SDS011;39735;51.432;5.482;2023-05-16T15:59:57;6.82;;;2.20;;
53833;SDS011;39735;51.432;5.482;2023-05-16T16:03:21;16.23;;;1.60;;
53833;SDS011;39735;51.432;5.482;2023-05-16T16:06:46;9.40;;;1.75;;
53833;SDS011;39735;51.432;5.482;2023-05-16T16:10:10;4.15;;;1.33;;
53833;SDS011;39735;51.432;5.482;2023-05-16T16:13:34;13.30;;;2.28;;
53833;SDS011;39735;51.432;5.482;2023-05-16T16:16:58;3.63;;;0.90;;
53833;SDS011;39735;51.432;5.482;2023-05-16T16:20:22;10.40;;;0.77;;
53833;SDS011;39735;51.432;5.482;2023-05-16T16:23:47;3.40;;;0.60;;
53833;SDS011;39735;51.432;5.482;2023-05-16T16:27:11;7.50;;;0.68;;
53833;SDS011;39735;51.432;5.482;2023-05-16T16:30:35;7.97;;;1.92;;
53833;SDS011;39735;51.432;5.482;2023-05-16T16:33:59;7.50;;;1.70;;
53833;SDS011;39735;51.432;5.482;2023-05-16T16:37:23;3.35;;;1.15;;
53833;SDS011;39735;51.432;5.482;2023-05-16T16:40:47;14.30;;;1.73;;
53833;SDS011;39735;51.432;5.482;2023-05-16T16:44:11;7.25;;;3.22;;
53833;SDS011;39735;51.432;5.482;2023-05-16T16:47:35;4.88;;;1.27;;
53833;SDS011;39735;51.432;5.482;2023-05-16T16:51:00;3.97;;;1.08;;
53833;SDS011;39735;51.432;5.482;2023-05-16T16:54:24;3.17;;;0.90;;
53833;SDS011;39735;51.432;5.482;2023-05-16T16:57:48;15.35;;;5.30;;
53833;SDS011;39735;51.432;5.482;2023-05-16T17:01:12;5.85;;;1.17;;
53833;SDS011;39735;51.432;5.482;2023-05-16T17:04:37;7.95;;;1.10;;
53833;SDS011;39735;51.432;5.482;2023-05-16T17:08:01;5.50;;;1.92;;
53833;SDS011;39735;51.432;5.482;2023-05-16T17:11:30;13.45;;;2.03;;
53833;SDS011;39735;51.432;5.482;2023-05-16T17:14:55;9.07;;;1.58;;
53833;SDS011;39735;51.432;5.482;2023-05-16T17:18:18;8.63;;;0.98;;
53833;SDS011;39735;51.432;5.482;2023-05-16T17:21:42;4.28;;;1.05;;
53833;SDS011;39735;51.432;5.482;2023-05-16T17:25:06;7.78;;;1.55;;
53833;SDS011;39735;51.432;5.482;2023-05-16T17:28:30;16.25;;;1.10;;
53833;SDS011;39735;51.432;5.482;2023-05-16T17:31:54;3.78;;;1.40;;
53833;SDS011;39735;51.432;5.482;2023-05-16T17:35:19;2.13;;;0.85;;
53833;SDS011;39735;51.432;5.482;2023-05-16T17:38:43;4.90;;;1.35;;
53833;SDS011;39735;51.432;5.482;2023-05-16T17:42:07;2.70;;;0.90;;
53833;SDS011;39735;51.432;5.482;2023-05-16T17:45:31;9.77;;;2.15;;
53833;SDS011;39735;51.432;5.482;2023-05-16T17:48:55;15.23;;;1.38;;
53833;SDS011;39735;51.432;5.482;2023-05-16T17:52:19;2.78;;;0.80;;
53833;SDS011;39735;51.432;5.482;2023-05-16T17:55:43;4.45;;;0.65;;
53833;SDS011;39735;51.432;5.482;2023-05-16T17:59:07;13.10;;;2.25;;
53833;SDS011;39735;51.432;5.482;2023-05-16T18:02:32;4.53;;;1.20;;
53833;SDS011;39735;51.432;5.482;2023-05-16T18:05:56;5.13;;;1.50;;
53833;SDS011;39735;51.432;5.482;2023-05-16T18:09:21;9.30;;;1.45;;
53833;SDS011;39735;51.432;5.482;2023-05-16T18:12:45;7.53;;;1.25;;
53833;SDS011;39735;51.432;5.482;2023-05-16T18:16:10;13.80;;;1.13;;
53833;SDS011;39735;51.432;5.482;2023-05-16T18:19:34;3.70;;;1.05;;
53833;SDS011;39735;51.432;5.482;2023-05-16T18:22:58;3.05;;;0.80;;
53833;SDS011;39735;51.432;5.482;2023-05-16T18:26:23;3.35;;;1.02;;
53833;SDS011;39735;51.432;5.482;2023-05-16T18:29:47;3.35;;;0.57;;
53833;SDS011;39735;51.432;5.482;2023-05-16T18:33:11;3.95;;;1.75;;
53833;SDS011;39735;51.432;5.482;2023-05-16T18:36:35;5.78;;;1.42;;
53833;SDS011;39735;51.432;5.482;2023-05-16T18:40:00;14.60;;;1.60;;
53833;SDS011;39735;51.432;5.482;2023-05-16T18:43:24;7.90;;;1.50;;
53833;SDS011;39735;51.432;5.482;2023-05-16T18:46:48;8.32;;;1.77;;
53833;SDS011;39735;51.432;5.482;2023-05-16T18:50:12;10.73;;;2.22;;
53833;SDS011;39735;51.432;5.482;2023-05-16T18:53:36;4.93;;;1.67;;
53833;SDS011;39735;51.432;5.482;2023-05-16T18:57:00;9.13;;;2.50;;
53833;SDS011;39735;51.432;5.482;2023-05-16T19:00:24;12.48;;;1.98;;
53833;SDS011;39735;51.432;5.482;2023-05-16T19:03:49;10.38;;;1.27;;
53833;SDS011;39735;51.432;5.482;2023-05-16T19:07:13;10.57;;;2.00;;
53833;SDS011;39735;51.432;5.482;2023-05-16T19:10:37;11.23;;;1.48;;
53833;SDS011;39735;51.432;5.482;2023-05-16T19:14:01;10.15;;;2.72;;
53833;SDS011;39735;51.432;5.482;2023-05-16T19:17:25;8.07;;;1.25;;
53833;SDS011;39735;51.432;5.482;2023-05-16T19:20:49;13.80;;;2.00;;
53833;SDS011;39735;51.432;5.482;2023-05-16T19:24:13;10.27;;;2.08;;
53833;SDS011;39735;51.432;5.482;2023-05-16T19:27:37;18.63;;;3.75;;
53833;SDS011;39735;51.432;5.482;2023-05-16T19:31:01;8.60;;;2.75;;
53833;SDS011;39735;51.432;5.482;2023-05-16T19:34:25;17.80;;;2.67;;
53833;SDS011;39735;51.432;5.482;2023-05-16T19:37:49;17.42;;;4.00;;
53833;SDS011;39735;51.432;5.482;2023-05-16T19:41:13;20.88;;;1.95;;
53833;SDS011;39735;51.432;5.482;2023-05-16T19:44:37;13.40;;;3.38;;
53833;SDS011;39735;51.432;5.482;2023-05-16T19:48:01;11.82;;;2.15;;
53833;SDS011;39735;51.432;5.482;2023-05-16T19:51:25;11.55;;;1.75;;
53833;SDS011;39735;51.432;5.482;2023-05-16T19:54:50;10.07;;;2.30;;
53833;SDS011;39735;51.432;5.482;2023-05-16T19:58:14;8.10;;;2.25;;
53833;SDS011;39735;51.432;5.482;2023-05-16T20:01:38;16.38;;;3.88;;
53833;SDS011;39735;51.432;5.482;2023-05-16T20:05:02;11.35;;;3.88;;
53833;SDS011;39735;51.432;5.482;2023-05-16T20:08:26;14.80;;;2.50;;
53833;SDS011;39735;51.432;5.482;2023-05-16T20:11:51;8.82;;;2.25;;
53833;SDS011;39735;51.432;5.482;2023-05-16T20:15:15;25.58;;;2.80;;
53833;SDS011;39735;51.432;5.482;2023-05-16T20:18:39;17.17;;;1.85;;
53833;SDS011;39735;51.432;5.482;2023-05-16T20:22:07;6.20;;;2.30;;
53833;SDS011;39735;51.432;5.482;2023-05-16T20:25:31;15.63;;;3.38;;
53833;SDS011;39735;51.432;5.482;2023-05-16T20:28:55;11.27;;;3.40;;
53833;SDS011;39735;51.432;5.482;2023-05-16T20:32:20;11.60;;;1.83;;
53833;SDS011;39735;51.432;5.482;2023-05-16T20:35:44;14.07;;;2.75;;
53833;SDS011;39735;51.432;5.482;2023-05-16T20:39:08;24.48;;;3.92;;
53833;SDS011;39735;51.432;5.482;2023-05-16T20:42:33;13.43;;;3.95;;
53833;SDS011;39735;51.432;5.482;2023-05-16T20:45:57;26.85;;;4.63;;
53833;SDS011;39735;51.432;5.482;2023-05-16T20:49:21;9.13;;;2.85;;
53833;SDS011;39735;51.432;5.482;2023-05-16T20:52:44;26.38;;;3.60;;
53833;SDS011;39735;51.432;5.482;2023-05-16T20:56:08;12.73;;;2.35;;
53833;SDS011;39735;51.432;5.482;2023-05-16T20:59:32;10.88;;;2.50;;